createdAt,value
2018-03-27T00:01:22.587Z,21.37
2018-03-27T00:03:55.922Z,21.37
2018-03-27T00:06:30.585Z,20.53
2018-03-27T00:09:05.235Z,23.37
2018-03-27T00:11:38.469Z,21.90
2018-03-27T00:14:11.970Z,21.53
2018-03-27T00:16:46.024Z,21.93
2018-03-27T00:19:21.921Z,19.37
2018-03-27T00:21:55.096Z,22.10
2018-03-27T00:24:29.378Z,19.90
2018-03-27T00:27:01.753Z,20.27
2018-03-27T00:29:45.753Z,20.53
2018-03-27T00:32:35.879Z,22.97
2018-03-27T00:35:26.003Z,21.83
2018-03-27T00:38:16.251Z,21.97
2018-03-27T00:40:54.686Z,21.73
2018-03-27T00:43:29.646Z,22.33
2018-03-27T00:46:04.200Z,20.80
2018-03-27T00:48:37.279Z,20.13
2018-03-27T00:51:10.526Z,18.60
2018-03-27T00:53:43.550Z,17.50
2018-03-27T00:56:16.731Z,18.67
2018-03-27T00:58:51.081Z,20.73
2018-03-27T01:01:24.614Z,20.50
2018-03-27T01:03:57.827Z,19.60
2018-03-27T01:06:31.509Z,19.00
2018-03-27T01:09:04.819Z,18.07
2018-03-27T01:11:38.119Z,18.77
2018-03-27T01:14:12.212Z,18.07
2018-03-27T01:16:45.474Z,19.00
2018-03-27T01:19:18.739Z,17.53
2018-03-27T01:21:52.161Z,18.17
2018-03-27T01:24:25.273Z,17.50
2018-03-27T01:26:58.540Z,16.87
2018-03-27T01:29:32.224Z,15.27
2018-03-27T01:32:05.807Z,13.57
2018-03-27T01:34:38.763Z,15.67
2018-03-27T01:37:12.405Z,14.90
2018-03-27T01:39:46.425Z,14.67
2018-03-27T01:42:20.436Z,13.90
2018-03-27T01:44:55.134Z,12.97
2018-03-27T01:47:28.215Z,14.30
2018-03-27T01:50:02.062Z,14.83
2018-03-27T01:52:35.977Z,15.03
2018-03-27T01:55:09.167Z,15.47
2018-03-27T01:57:42.401Z,14.00
2018-03-27T02:00:16.575Z,13.57
2018-03-27T02:02:50.071Z,13.93
2018-03-27T02:05:24.292Z,13.03
2018-03-27T02:07:58.671Z,13.80
2018-03-27T02:10:32.201Z,13.37
2018-03-27T02:13:10.722Z,13.70
2018-03-27T02:15:49.643Z,13.60
2018-03-27T02:18:28.089Z,13.23
2018-03-27T02:21:07.215Z,11.73
2018-03-27T02:23:40.606Z,13.40
2018-03-27T02:26:13.614Z,14.40
2018-03-27T02:28:47.384Z,13.83
2018-03-27T02:31:21.200Z,13.87
2018-03-27T02:33:54.600Z,12.33
2018-03-27T02:36:29.160Z,13.17
2018-03-27T02:39:02.634Z,13.83
2018-03-27T02:41:35.685Z,13.73
2018-03-27T02:44:09.164Z,13.73
2018-03-27T02:46:42.730Z,13.83
2018-03-27T02:49:16.489Z,13.53
2018-03-27T02:51:50.437Z,12.80
2018-03-27T02:54:23.943Z,13.60
2018-03-27T02:56:56.893Z,12.23
2018-03-27T02:59:30.011Z,13.53
2018-03-27T03:02:04.044Z,12.87
2018-03-27T03:04:38.984Z,13.60
2018-03-27T03:07:12.833Z,12.50
2018-03-27T03:09:46.344Z,12.53
2018-03-27T03:12:19.845Z,12.23
2018-03-27T03:14:53.620Z,13.30
2018-03-27T03:17:27.353Z,12.80
2018-03-27T03:20:00.456Z,13.53
2018-03-27T03:22:34.171Z,13.63
2018-03-27T03:25:07.727Z,14.47
2018-03-27T03:27:40.882Z,13.80
2018-03-27T03:30:14.978Z,14.47
2018-03-27T03:32:48.425Z,16.57
2018-03-27T03:35:22.390Z,13.50
2018-03-27T03:37:55.752Z,14.27
2018-03-27T03:40:29.685Z,13.33
2018-03-27T03:43:04.305Z,12.97
2018-03-27T03:45:39.122Z,15.07
2018-03-27T03:48:12.316Z,13.43
2018-03-27T03:50:45.691Z,14.47
2018-03-27T03:53:18.879Z,15.03
2018-03-27T03:55:52.612Z,15.27
2018-03-27T03:58:25.721Z,16.67
2018-03-27T04:00:58.768Z,13.93
2018-03-27T04:03:32.405Z,15.60
2018-03-27T04:06:06.576Z,16.80
2018-03-27T04:08:40.205Z,18.13
2018-03-27T04:11:13.812Z,16.33
2018-03-27T04:13:48.117Z,17.03
2018-03-27T04:16:21.192Z,16.37
2018-03-27T04:18:55.001Z,15.50
2018-03-27T04:21:28.167Z,16.13
2018-03-27T04:24:01.357Z,15.83
2018-03-27T04:26:35.227Z,14.83
2018-03-27T04:29:08.537Z,14.97
2018-03-27T04:31:42.041Z,17.13
2018-03-27T04:34:16.494Z,18.13
2018-03-27T04:36:49.850Z,16.40
2018-03-27T04:39:23.522Z,16.70
2018-03-27T04:41:56.978Z,15.73
2018-03-27T04:44:30.134Z,15.33
2018-03-27T04:47:03.728Z,17.73
2018-03-27T04:49:39.191Z,17.77
2018-03-27T04:52:13.053Z,19.33
2018-03-27T04:54:46.502Z,18.23
2018-03-27T04:57:20.451Z,18.30
2018-03-27T04:59:54.444Z,19.27
2018-03-27T05:02:29.604Z,18.00
2018-03-27T05:05:04.055Z,22.47
2018-03-27T05:07:38.223Z,22.83
2018-03-27T05:10:12.001Z,26.87
2018-03-27T05:12:45.957Z,18.70
2018-03-27T05:15:21.255Z,19.40
2018-03-27T05:17:55.736Z,20.63
2018-03-27T05:20:29.808Z,19.90
2018-03-27T05:23:03.030Z,18.07
2018-03-27T05:25:36.079Z,19.33
2018-03-27T05:28:11.925Z,18.27
2018-03-27T05:30:45.657Z,20.87
2018-03-27T05:33:19.188Z,18.53
2018-03-27T05:35:52.838Z,19.70
2018-03-27T05:38:27.776Z,21.97
2018-03-27T05:41:05.481Z,21.80
2018-03-27T05:43:41.694Z,22.37
2018-03-27T05:46:16.082Z,20.17
2018-03-27T05:48:49.800Z,20.60
2018-03-27T05:51:23.711Z,20.03
2018-03-27T05:53:57.423Z,20.83
2018-03-27T05:56:30.866Z,22.57
2018-03-27T05:59:05.348Z,21.87
2018-03-27T06:01:39.598Z,21.20
2018-03-27T06:04:13.983Z,19.93
2018-03-27T06:06:48.560Z,18.70
2018-03-27T06:09:22.288Z,21.37
2018-03-27T06:11:58.296Z,21.10
2018-03-27T06:14:32.479Z,18.67
2018-03-27T06:17:06.987Z,20.80
2018-03-27T06:19:40.304Z,20.47
2018-03-27T06:22:14.040Z,18.50
2018-03-27T06:24:47.768Z,22.37
2018-03-27T06:29:59.565Z,23.60
2018-03-27T06:32:33.696Z,22.43
2018-03-27T06:35:07.780Z,22.40
2018-03-27T06:37:42.499Z,21.30
2018-03-27T06:40:31.626Z,21.70
2018-03-27T06:43:12.962Z,23.60
2018-03-27T06:45:47.264Z,24.40
2018-03-27T06:48:22.818Z,27.13
2018-03-27T06:50:57.146Z,23.33
2018-03-27T06:53:32.985Z,26.40
2018-03-27T06:56:06.730Z,21.50
2018-03-27T06:58:39.900Z,22.60
2018-03-27T07:01:13.895Z,22.80
2018-03-27T07:03:47.203Z,23.93
2018-03-27T07:06:20.751Z,23.20
2018-03-27T07:08:55.328Z,23.17
2018-03-27T07:11:28.878Z,23.13
2018-03-27T07:14:03.039Z,24.80
2018-03-27T07:16:36.630Z,24.87
2018-03-27T07:19:09.969Z,24.93
2018-03-27T07:21:45.491Z,24.47
2018-03-27T07:24:19.063Z,24.03
2018-03-27T07:26:54.021Z,27.83
2018-03-27T07:29:27.720Z,25.03
2018-03-27T07:32:00.940Z,24.53
2018-03-27T07:34:35.297Z,24.03
2018-03-27T07:37:08.878Z,25.53
2018-03-27T07:39:42.856Z,23.83
2018-03-27T07:42:18.122Z,23.83
2018-03-27T07:44:51.446Z,23.27
2018-03-27T07:47:25.213Z,24.73
2018-03-27T07:49:59.877Z,23.20
2018-03-27T07:52:34.524Z,22.23
2018-03-27T07:55:09.603Z,23.47
2018-03-27T07:57:44.148Z,24.17
2018-03-27T08:00:19.414Z,26.17
2018-03-27T08:02:54.220Z,23.03
2018-03-27T08:05:27.607Z,25.07
2018-03-27T08:08:02.246Z,25.27
2018-03-27T08:10:35.582Z,22.40
2018-03-27T08:13:08.982Z,26.10
2018-03-27T08:15:44.101Z,25.00
2018-03-27T08:18:17.639Z,25.67
2018-03-27T08:20:51.560Z,26.77
2018-03-27T08:23:26.066Z,27.20
2018-03-27T08:26:00.028Z,31.60
2018-03-27T08:28:34.200Z,32.90
2018-03-27T08:31:07.291Z,28.90
2018-03-27T08:33:42.634Z,28.97
2018-03-27T08:36:15.964Z,28.43
2018-03-27T08:38:52.706Z,28.27
2018-03-27T08:41:27.790Z,27.27
2018-03-27T08:44:01.527Z,27.50
2018-03-27T08:46:34.879Z,26.83
2018-03-27T08:49:09.081Z,25.53
2018-03-27T08:51:43.209Z,27.43
2018-03-27T08:54:18.845Z,26.40
2018-03-27T08:56:54.942Z,26.50
2018-03-27T08:59:31.822Z,27.97
2018-03-27T09:02:06.795Z,25.60
2018-03-27T09:04:40.701Z,25.20
2018-03-27T09:07:14.288Z,23.13
2018-03-27T09:09:48.274Z,21.07
2018-03-27T09:12:21.451Z,22.83
2018-03-27T09:14:54.621Z,20.73
2018-03-27T09:17:28.924Z,20.60
2018-03-27T09:20:02.302Z,21.63
2018-03-27T09:22:35.704Z,19.80
2018-03-27T09:25:10.130Z,21.67
2018-03-27T09:27:43.490Z,20.33
2018-03-27T09:30:16.900Z,22.93
2018-03-27T09:32:52.535Z,19.93
2018-03-27T09:35:27.569Z,20.17
2018-03-27T09:38:01.763Z,19.50
2018-03-27T09:40:35.445Z,18.03
2018-03-27T09:43:09.643Z,17.83
2018-03-27T09:45:43.123Z,17.93
2018-03-27T09:48:16.715Z,16.77
2018-03-27T09:50:51.226Z,18.07
2018-03-27T09:53:24.508Z,18.97
2018-03-27T09:55:58.378Z,17.40
2018-03-27T09:58:33.134Z,17.40
2018-03-27T10:01:10.055Z,18.43
2018-03-27T10:03:47.074Z,16.53
2018-03-27T10:06:21.038Z,17.77
2018-03-27T10:08:57.495Z,18.70
2018-03-27T10:11:31.008Z,17.37
2018-03-27T10:14:04.782Z,18.47
2018-03-27T10:16:38.101Z,17.40
2018-03-27T10:19:12.370Z,16.93
2018-03-27T10:21:45.883Z,17.70
2018-03-27T10:24:19.757Z,15.07
2018-03-27T10:26:53.856Z,14.80
2018-03-27T10:29:29.050Z,14.47
2018-03-27T10:32:02.482Z,16.27
2018-03-27T10:34:39.113Z,15.40
2018-03-27T10:37:14.209Z,16.07
2018-03-27T10:39:47.919Z,16.80
2018-03-27T10:42:21.840Z,16.13
2018-03-27T10:44:56.102Z,14.93
2018-03-27T10:47:29.918Z,14.40
2018-03-27T10:50:03.997Z,12.77
2018-03-27T10:52:38.155Z,13.33
2018-03-27T10:55:11.912Z,13.37
2018-03-27T10:57:45.355Z,13.30
2018-03-27T11:00:21.294Z,13.03
2018-03-27T11:02:56.106Z,14.53
2018-03-27T11:05:31.244Z,13.27
2018-03-27T11:08:05.510Z,13.20
2018-03-27T11:10:41.552Z,13.53
2018-03-27T11:13:17.053Z,11.47
2018-03-27T11:15:52.071Z,12.17
2018-03-27T11:18:25.908Z,11.30
2018-03-27T11:20:59.532Z,11.97
2018-03-27T11:23:33.226Z,12.40
2018-03-27T11:26:06.894Z,13.30
2018-03-27T11:28:46.969Z,11.90
2018-03-27T11:31:22.029Z,11.27
2018-03-27T11:33:58.038Z,12.50
2018-03-27T11:36:31.370Z,10.93
2018-03-27T11:39:07.657Z,10.80
2018-03-27T11:41:42.526Z,10.17
2018-03-27T11:44:17.215Z,11.07
2018-03-27T11:46:50.995Z,10.27
2018-03-27T11:49:25.533Z,10.17
2018-03-27T11:51:58.972Z,10.37
2018-03-27T11:54:32.796Z,9.87
2018-03-27T11:57:16.816Z,10.10
2018-03-27T11:59:52.103Z,9.30
2018-03-27T12:02:25.749Z,8.83
2018-03-27T12:05:00.520Z,9.40
2018-03-27T12:07:35.097Z,9.43
2018-03-27T12:10:12.625Z,10.03
2018-03-27T12:12:47.418Z,9.03
2018-03-27T12:15:21.492Z,9.40
2018-03-27T12:17:55.151Z,8.50
2018-03-27T12:20:28.997Z,9.60
2018-03-27T12:23:02.902Z,9.90
2018-03-27T12:25:39.924Z,9.33
2018-03-27T12:28:15.644Z,8.30
2018-03-27T12:30:51.611Z,9.47
2018-03-27T12:33:26.229Z,8.90
2018-03-27T12:35:59.964Z,8.17
2018-03-27T12:38:35.566Z,8.60
2018-03-27T12:41:09.754Z,8.37
2018-03-27T12:43:43.429Z,8.57
2018-03-27T12:46:18.508Z,7.80
2018-03-27T12:48:54.751Z,8.90
2018-03-27T12:51:28.912Z,9.23
2018-03-27T12:54:02.959Z,9.30
2018-03-27T12:56:36.642Z,10.73
2018-03-27T12:59:16.866Z,11.00
2018-03-27T13:01:51.437Z,9.90
2018-03-27T13:04:25.897Z,9.73
2018-03-27T13:07:02.061Z,9.77
2018-03-27T13:09:37.106Z,10.30
2018-03-27T13:12:10.585Z,10.10
2018-03-27T13:14:44.256Z,11.07
2018-03-27T13:17:18.746Z,9.83
2018-03-27T13:20:00.543Z,12.37
2018-03-27T13:22:37.324Z,11.23
2018-03-27T13:25:10.681Z,9.63
2018-03-27T13:27:44.463Z,10.60
2018-03-27T13:30:19.080Z,10.53
2018-03-27T13:32:52.421Z,9.80
2018-03-27T13:35:25.681Z,11.10
2018-03-27T13:38:01.380Z,11.27
2018-03-27T13:40:34.529Z,10.27
2018-03-27T13:43:08.637Z,9.10
2018-03-27T13:45:48.640Z,9.83
2018-03-27T13:48:24.266Z,10.97
2018-03-27T13:51:02.247Z,9.70
2018-03-27T13:53:42.599Z,9.23
2018-03-27T13:56:24.495Z,8.77
2018-03-27T13:58:59.746Z,10.40
2018-03-27T14:01:37.664Z,9.97
2018-03-27T14:04:12.816Z,11.00
2018-03-27T14:06:47.891Z,11.13
2018-03-27T14:09:21.926Z,11.50
2018-03-27T14:11:55.906Z,11.10
2018-03-27T14:14:29.675Z,12.03
2018-03-27T14:17:05.823Z,11.63
2018-03-27T14:19:46.982Z,11.73
2018-03-27T14:22:24.331Z,11.17
2018-03-27T14:25:12.340Z,11.73
2018-03-27T14:27:48.353Z,11.77
2018-03-27T14:30:23.087Z,11.73
2018-03-27T14:33:00.179Z,11.43
2018-03-27T14:35:34.888Z,10.63
2018-03-27T14:38:11.785Z,10.40
2018-03-27T14:40:46.626Z,10.60
2018-03-27T14:43:21.953Z,11.87
2018-03-27T14:46:00.854Z,11.07
2018-03-27T14:48:34.735Z,11.77
2018-03-27T14:51:09.047Z,11.00
2018-03-27T14:53:43.797Z,11.30
2018-03-27T14:56:22.599Z,11.70
2018-03-27T14:58:55.933Z,11.33
2018-03-27T15:01:31.565Z,10.83
2018-03-27T15:04:06.737Z,10.80
2018-03-27T15:06:40.704Z,10.87
2018-03-27T15:09:14.872Z,11.67
2018-03-27T15:11:54.917Z,11.53
2018-03-27T15:14:28.439Z,11.17
2018-03-27T15:17:02.592Z,11.77
2018-03-27T15:19:37.630Z,11.00
2018-03-27T15:22:11.920Z,11.50
2018-03-27T15:24:45.269Z,10.57
2018-03-27T15:27:20.035Z,10.77
2018-03-27T15:30:00.087Z,11.80
2018-03-27T15:35:56.856Z,10.73
2018-03-27T15:38:33.006Z,10.07
2018-03-27T15:41:25.549Z,10.50
2018-03-27T15:44:01.366Z,10.37
2018-03-27T15:46:38.073Z,10.73
2018-03-27T15:49:12.461Z,10.33
2018-03-27T15:51:46.989Z,9.90
2018-03-27T15:54:22.441Z,8.97
2018-03-27T15:56:59.382Z,10.67
2018-03-27T15:59:35.842Z,10.17
2018-03-27T16:02:09.924Z,10.80
2018-03-27T16:04:44.327Z,9.17
2018-03-27T16:07:18.683Z,9.90
2018-03-27T16:09:52.557Z,9.33
2018-03-27T16:12:29.539Z,9.20
2018-03-27T16:15:08.053Z,10.77
2018-03-27T16:17:54.058Z,10.10
2018-03-27T16:20:29.857Z,9.50
2018-03-27T16:23:05.773Z,9.60
2018-03-27T16:25:41.335Z,9.70
2018-03-27T16:28:17.714Z,10.20
2018-03-27T16:30:52.558Z,10.23
2018-03-27T16:33:28.064Z,9.50
2018-03-27T16:36:05.201Z,9.93
2018-03-27T16:38:41.997Z,9.80
2018-03-27T16:41:21.445Z,10.00
2018-03-27T16:43:56.025Z,9.47
2018-03-27T16:46:30.593Z,9.60
2018-03-27T16:49:07.165Z,10.60
2018-03-27T16:51:44.174Z,9.33
2018-03-27T16:54:18.679Z,9.83
2018-03-27T16:56:53.747Z,9.43
2018-03-27T16:59:28.773Z,9.97
2018-03-27T17:02:11.738Z,12.17
2018-03-27T17:04:46.775Z,12.90
2018-03-27T17:07:21.029Z,11.07
2018-03-27T17:09:56.342Z,10.40
2018-03-27T17:12:36.067Z,9.87
2018-03-27T17:15:11.616Z,11.07
2018-03-27T17:17:45.751Z,11.03
2018-03-27T17:20:19.797Z,19.17
2018-03-27T17:22:53.928Z,26.77
2018-03-27T17:25:28.950Z,21.73
2018-03-27T17:28:02.945Z,18.23
2018-03-27T17:30:38.508Z,20.60
2018-03-27T17:33:12.629Z,19.77
2018-03-27T17:35:54.360Z,16.83
2018-03-27T17:38:37.620Z,21.03
2018-03-27T17:41:13.083Z,21.80
2018-03-27T17:43:48.191Z,21.43
2018-03-27T17:46:22.442Z,19.33
2018-03-27T17:48:56.201Z,18.73
2018-03-27T17:51:32.979Z,17.70
2018-03-27T17:54:11.379Z,15.47
2018-03-27T17:56:49.189Z,12.00
2018-03-27T17:59:23.392Z,11.13
2018-03-27T18:01:57.306Z,10.73
2018-03-27T18:04:31.801Z,9.23
2018-03-27T18:07:05.814Z,10.70
2018-03-27T18:09:40.323Z,11.17
2018-03-27T18:12:14.520Z,10.30
2018-03-27T18:14:48.922Z,11.40
2018-03-27T18:17:23.298Z,9.73
2018-03-27T18:19:57.029Z,9.60
2018-03-27T18:22:31.060Z,8.67
2018-03-27T18:25:05.656Z,10.23
2018-03-27T18:27:39.580Z,12.43
2018-03-27T18:30:13.598Z,18.03
2018-03-27T18:32:47.730Z,14.80
2018-03-27T18:35:22.358Z,14.30
2018-03-27T18:38:00.463Z,10.33
2018-03-27T18:40:35.453Z,9.30
2018-03-27T18:43:10.358Z,9.67
2018-03-27T18:45:45.212Z,9.20
2018-03-27T18:48:19.457Z,9.97
2018-03-27T18:50:53.930Z,10.37
2018-03-27T18:53:27.739Z,10.53
2018-03-27T18:56:01.889Z,12.27
2018-03-27T18:58:36.097Z,11.67
2018-03-27T19:01:10.194Z,10.50
2018-03-27T19:03:47.976Z,11.77
2018-03-27T19:06:23.196Z,10.33
2018-03-27T19:08:57.757Z,9.33
2018-03-27T19:11:32.003Z,8.53
2018-03-27T19:14:06.341Z,9.37
2018-03-27T19:16:40.833Z,8.27
2018-03-27T19:19:16.256Z,10.20
2018-03-27T19:21:52.556Z,9.23
2018-03-27T19:24:26.777Z,10.40
2018-03-27T19:27:01.483Z,11.70
2018-03-27T19:29:35.607Z,9.73
2018-03-27T20:00:33.635Z,9.90
2018-03-27T20:03:07.735Z,9.73
2018-03-27T20:05:41.242Z,10.47
2018-03-27T20:08:15.386Z,9.50
2018-03-27T20:10:49.123Z,10.20
2018-03-27T20:13:22.972Z,10.03
2018-03-27T20:15:57.238Z,9.80
2018-03-27T20:18:30.783Z,10.20
2018-03-27T20:21:04.424Z,10.50
2018-03-27T20:23:38.326Z,10.87
2018-03-27T20:26:12.494Z,11.67
2018-03-27T20:28:47.822Z,11.90
2018-03-27T20:31:22.911Z,11.70
2018-03-27T20:33:57.622Z,11.00
2018-03-27T20:36:31.668Z,11.70
2018-03-27T20:39:06.810Z,12.47
2018-03-27T20:41:41.346Z,11.60
2018-03-27T20:44:15.223Z,10.80
2018-03-27T20:46:51.272Z,11.27
2018-03-27T20:49:25.203Z,13.13
2018-03-27T20:51:59.154Z,11.83
2018-03-27T20:54:33.254Z,11.83
2018-03-27T20:57:06.731Z,10.83
2018-03-27T20:59:40.918Z,11.00
2018-03-27T21:02:14.563Z,10.50
2018-03-27T21:04:48.856Z,10.70
2018-03-27T21:07:22.714Z,9.97
2018-03-27T21:09:56.161Z,10.37
2018-03-27T21:12:29.913Z,10.20
2018-03-27T21:15:03.857Z,10.77
2018-03-27T21:17:38.017Z,10.67
2018-03-27T21:20:12.137Z,10.53
2018-03-27T21:22:46.505Z,10.70
2018-03-27T21:25:19.912Z,10.33
2018-03-27T21:27:53.510Z,10.00
2018-03-27T21:30:27.697Z,10.20
2018-03-27T21:33:01.234Z,10.40
2018-03-27T21:35:34.853Z,10.00
2018-03-27T21:38:09.239Z,9.83
2018-03-27T21:40:42.720Z,10.67
2018-03-27T21:43:16.397Z,10.90
2018-03-27T21:45:51.702Z,9.90
2018-03-27T21:48:25.635Z,10.17
2018-03-27T21:50:59.458Z,9.50
2018-03-27T21:53:33.309Z,9.47
2018-03-27T21:56:07.038Z,9.87
2018-03-27T21:58:41.059Z,9.93
2018-03-27T22:01:14.813Z,9.37
2018-03-27T22:03:48.405Z,9.43
2018-03-27T22:06:26.399Z,8.90
2018-03-27T22:09:00.066Z,10.27
2018-03-27T22:11:33.406Z,8.87
2018-03-27T22:14:07.474Z,10.17
2018-03-27T22:16:41.259Z,10.07
2018-03-27T22:19:14.811Z,10.23
2018-03-27T22:21:48.815Z,10.10
2018-03-27T22:24:23.324Z,10.50
2018-03-27T22:26:56.651Z,10.37
2018-03-27T22:29:30.825Z,9.60
2018-03-27T22:32:04.511Z,9.83
2018-03-27T22:34:37.954Z,9.70
2018-03-27T22:37:11.698Z,9.03
2018-03-27T22:39:45.955Z,9.90
2018-03-27T22:42:19.533Z,10.70
2018-03-27T22:44:52.903Z,10.20
2018-03-27T22:47:27.177Z,9.47
2018-03-27T22:50:01.533Z,9.43
2018-03-27T22:52:35.089Z,10.30
2018-03-27T22:55:09.114Z,10.37
2018-03-27T22:57:42.518Z,10.17
2018-03-27T23:00:17.505Z,10.90
2018-03-27T23:02:51.146Z,11.27
2018-03-27T23:05:25.350Z,11.00
2018-03-27T23:08:24.209Z,10.50
2018-03-27T23:10:58.146Z,10.13
2018-03-27T23:13:35.332Z,10.27
2018-03-27T23:16:12.366Z,9.50
2018-03-27T23:18:52.694Z,10.70
2018-03-27T23:21:30.177Z,11.00
2018-03-27T23:24:05.035Z,11.10
2018-03-27T23:26:38.623Z,11.87
2018-03-27T23:29:12.219Z,11.97
2018-03-27T23:31:45.722Z,12.37
2018-03-27T23:34:19.570Z,12.80
2018-03-27T23:36:54.023Z,12.83
2018-03-27T23:39:27.928Z,13.43
2018-03-27T23:42:01.961Z,12.57
2018-03-27T23:44:43.574Z,12.73
2018-03-27T23:47:17.620Z,12.67
2018-03-27T23:49:53.779Z,11.80
2018-03-27T23:52:28.693Z,12.00
2018-03-27T23:55:03.219Z,11.30
2018-03-27T23:57:38.044Z,10.73
